This is the latest recevied weather packets stored in our database for station/object N3SBK. If no packets are shown the sender has not sent any weather packets the latest 10 day(s).
| Time | Temp. | Humidity | Pressure | Rain* | Wind** | Luminosity | Snow |
|---|---|---|---|---|---|---|---|
| 1787847738 | 26.67° C | 62% | 1007.5 hPa | 0 mm | - | 626 W/m² | - |
| 1787847438 | 26.67° C | 62% | 1007.4 hPa | 0 mm | - | 630 W/m² | - |
| 1787847133 | 25.56° C | 66% | 1007.5 hPa | 0 mm | - | 749 W/m² | - |
| 1787846829 | 25.56° C | 67% | 1007.5 hPa | 0 mm | - | 487 W/m² | - |
| 1787846524 | 25.56° C | 63% | 1007.4 hPa | 0 mm | - | 241 W/m² | - |
| 1787846220 | 26.11° C | 63% | 1007.3 hPa | 0 mm | - | 200 W/m² | - |
| 1787845915 | 26.67° C | 64% | 1007.5 hPa | 0 mm | - | 427 W/m² | - |
| 1787845610 | 26.11° C | 65% | 1007.5 hPa | 0 mm | - | 437 W/m² | - |
| 1787845305 | 25.56° C | 70% | 1007.7 hPa | 0 mm | - | 623 W/m² | - |
| 1787845002 | 25.56° C | 68% | 1007.5 hPa | 0 mm | - | 439 W/m² | - |
| 1787844697 | 25.56° C | 68% | 1007.5 hPa | 0 mm | - | 258 W/m² | - |
| 1787844396 | 25° C | 73% | 1007.3 hPa | 0 mm | - | 541 W/m² | - |
| 1787844096 | 25° C | 71% | 1007.4 hPa | 0 mm | - | 527 W/m² | - |
| 1787843791 | 24.44° C | 74% | 1007.3 hPa | 0 mm | - | 468 W/m² | - |
| 1787843486 | 24.44° C | 72% | 1007.4 hPa | 0 mm | - | 469 W/m² | - |
| 1787843184 | 24.44° C | 74% | 1007.7 hPa | 0 mm | - | 523 W/m² | - |
| 1787842883 | 23.89° C | 72% | 1007.8 hPa | 0 mm | - | 188 W/m² | - |
| 1787842578 | 23.89° C | 75% | 1007.9 hPa | 0 mm | - | 271 W/m² | - |
| 1787842277 | 23.33° C | 78% | 1007.7 hPa | 0 mm | - | 196 W/m² | - |
| 1787841977 | 22.78° C | 78% | 1007.9 hPa | 0 mm | - | 122 W/m² | - |
| 1787841674 | 22.78° C | 78% | 1007.9 hPa | 0 mm | - | 135 W/m² | - |
| 1787841372 | 22.78° C | 79% | 1007.9 hPa | 0 mm | - | 155 W/m² | - |
| 1787841067 | 22.78° C | 79% | 1007.7 hPa | 0 mm | - | 139 W/m² | - |
| 1787840762 | 22.22° C | 79% | 1007.9 hPa | 0 mm | - | 109 W/m² | - |
| 1787840457 | 21.67° C | 79% | 1007.8 hPa | 0 mm | - | 58 W/m² | - |
* Rain latest hour (hover to see other rain measurements)
** Current wind speed in m/s (hover to see current wind gust speed)